createdAt,value
2018-05-26T00:01:34.678Z,16.10
2018-05-26T00:04:07.496Z,14.37
2018-05-26T00:06:35.796Z,15.80
2018-05-26T00:09:05.597Z,13.03
2018-05-26T00:11:33.147Z,13.10
2018-05-26T00:14:01.668Z,12.93
2018-05-26T00:16:31.632Z,13.30
2018-05-26T00:19:04.995Z,12.30
2018-05-26T00:21:39.163Z,11.57
2018-05-26T00:24:09.489Z,13.47
2018-05-26T00:26:38.643Z,12.70
2018-05-26T00:29:09.208Z,11.70
2018-05-26T00:31:37.645Z,15.07
2018-05-26T00:34:06.413Z,12.30
2018-05-26T00:36:41.686Z,12.67
2018-05-26T00:39:15.730Z,11.90
2018-05-26T00:41:43.315Z,13.83
2018-05-26T00:44:15.494Z,14.53
2018-05-26T00:46:43.525Z,13.77
2018-05-26T00:49:11.819Z,12.57
2018-05-26T00:51:41.174Z,13.93
2018-05-26T00:54:08.763Z,14.37
2018-05-26T00:56:39.737Z,13.27
2018-05-26T00:59:08.179Z,11.70
2018-05-26T01:01:37.176Z,13.00
2018-05-26T01:04:06.262Z,13.90
2018-05-26T01:06:35.059Z,12.87
2018-05-26T01:09:02.652Z,12.77
2018-05-26T01:11:31.720Z,13.10
2018-05-26T01:14:00.161Z,13.30
2018-05-26T01:16:27.688Z,14.03
2018-05-26T01:19:05.530Z,13.30
2018-05-26T01:24:07.995Z,13.50
2018-05-26T01:26:35.605Z,13.47
2018-05-26T01:29:12.638Z,13.93
2018-05-26T01:34:19.001Z,12.80
2018-05-26T01:36:49.705Z,15.07
2018-05-26T01:39:17.258Z,13.73
2018-05-26T01:41:52.681Z,14.53
2018-05-26T01:44:21.004Z,14.23
2018-05-26T01:46:50.023Z,14.53
2018-05-26T01:51:54.502Z,13.70
2018-05-26T01:54:25.485Z,14.07
2018-05-26T01:56:52.951Z,13.07
2018-05-26T01:59:20.825Z,13.30
2018-05-26T02:04:41.765Z,14.40
2018-05-26T02:07:13.392Z,13.40
2018-05-26T02:09:42.003Z,13.30
2018-05-26T02:12:13.397Z,12.23
2018-05-26T02:14:40.909Z,12.60
2018-05-26T02:17:09.980Z,13.20
2018-05-26T02:19:43.951Z,12.63
2018-05-26T02:22:12.161Z,12.73
2018-05-26T02:24:40.489Z,13.43
2018-05-26T02:27:16.508Z,14.37
2018-05-26T02:29:45.234Z,14.07
2018-05-26T02:32:12.833Z,14.10
2018-05-26T02:34:42.618Z,14.23
2018-05-26T02:37:10.892Z,13.47
2018-05-26T02:39:38.414Z,12.80
2018-05-26T02:42:06.039Z,14.97
2018-05-26T02:44:33.653Z,13.67
2018-05-26T02:47:09.442Z,12.73
2018-05-26T02:49:38.163Z,11.80
2018-05-26T02:52:14.677Z,13.10
2018-05-26T02:54:44.991Z,12.50
2018-05-26T02:57:13.517Z,12.60
2018-05-26T02:59:41.110Z,11.10
2018-05-26T03:04:49.633Z,13.10
2018-05-26T03:07:22.893Z,12.07
2018-05-26T03:09:58.528Z,11.97
2018-05-26T03:12:33.205Z,12.17
2018-05-26T03:15:00.883Z,11.97
2018-05-26T03:17:45.178Z,12.00
2018-05-26T03:20:13.784Z,11.90
2018-05-26T03:22:41.380Z,12.83
2018-05-26T03:25:10.023Z,14.67
2018-05-26T03:27:37.565Z,14.67
2018-05-26T03:30:07.666Z,14.40
2018-05-26T03:32:36.036Z,15.17
2018-05-26T03:35:07.109Z,15.13
2018-05-26T03:37:41.061Z,14.97
2018-05-26T03:40:17.317Z,15.03
2018-05-26T03:42:46.026Z,16.03
2018-05-26T03:45:23.228Z,14.47
2018-05-26T03:47:52.718Z,16.20
2018-05-26T03:50:20.897Z,15.00
2018-05-26T03:52:49.590Z,14.13
2018-05-26T03:58:57.944Z,14.43
2018-05-26T04:01:27.553Z,13.30
2018-05-26T04:03:57.865Z,13.63
2018-05-26T04:06:25.503Z,15.27
2018-05-26T04:08:54.771Z,13.40
2018-05-26T04:11:22.351Z,14.07
2018-05-26T04:13:51.551Z,13.80
2018-05-26T04:16:20.283Z,12.03
2018-05-26T04:18:48.582Z,13.80
2018-05-26T04:21:16.917Z,14.07
2018-05-26T04:23:47.589Z,14.53
2018-05-26T04:26:15.120Z,13.77
2018-05-26T04:28:52.496Z,13.40
2018-05-26T04:31:21.167Z,11.93
2018-05-26T04:33:55.265Z,12.77
2018-05-26T04:36:25.088Z,12.10
2018-05-26T04:38:56.060Z,10.90
2018-05-26T04:43:57.235Z,11.70
2018-05-26T04:46:26.487Z,11.10
2018-05-26T04:48:54.348Z,10.37
2018-05-26T04:51:24.032Z,9.83
2018-05-26T04:53:52.512Z,10.63
2018-05-26T04:56:21.496Z,11.10
2018-05-26T04:58:50.050Z,10.30
2018-05-26T05:01:21.972Z,11.60
2018-05-26T05:03:49.491Z,10.63
2018-05-26T05:06:19.144Z,10.60
2018-05-26T05:08:51.235Z,10.73
2018-05-26T05:11:21.943Z,10.00
2018-05-26T05:13:52.914Z,10.10
2018-05-26T05:16:20.415Z,10.03
2018-05-26T05:18:50.683Z,9.57
2018-05-26T05:21:20.489Z,9.30
2018-05-26T05:23:50.244Z,9.90
2018-05-26T05:26:30.677Z,9.80
2018-05-26T05:29:02.414Z,9.50
2018-05-26T05:31:38.076Z,9.47
2018-05-26T05:34:05.688Z,9.40
2018-05-26T05:36:40.935Z,8.17
2018-05-26T05:39:14.047Z,10.17
2018-05-26T05:41:42.693Z,9.00
2018-05-26T05:44:17.509Z,9.40
2018-05-26T05:46:46.945Z,9.80
2018-05-26T05:49:18.684Z,8.80
2018-05-26T05:51:52.005Z,8.30
2018-05-26T05:57:02.723Z,9.50
2018-05-26T05:59:40.264Z,10.10
2018-05-26T06:02:08.657Z,9.50
2018-05-26T06:04:37.780Z,9.90
2018-05-26T06:07:22.582Z,10.30
2018-05-26T06:09:54.460Z,9.27
2018-05-26T06:12:25.080Z,9.67
2018-05-26T06:15:00.081Z,9.97
2018-05-26T06:17:35.894Z,9.43
2018-05-26T06:20:06.942Z,10.37
2018-05-26T06:22:39.345Z,9.20
2018-05-26T06:25:14.116Z,9.40
2018-05-26T06:27:42.344Z,8.03
2018-05-26T06:30:12.398Z,8.03
2018-05-26T06:32:40.918Z,7.57
2018-05-26T06:35:10.626Z,7.67
2018-05-26T06:37:41.785Z,6.90
2018-05-26T06:40:09.866Z,7.40
2018-05-26T06:42:40.060Z,7.10
2018-05-26T06:45:07.585Z,6.73
2018-05-26T06:47:40.811Z,7.37
2018-05-26T06:50:08.333Z,7.10
2018-05-26T06:52:35.830Z,8.60
2018-05-26T06:55:03.313Z,7.73
2018-05-26T06:57:31.498Z,6.80
2018-05-26T06:59:58.982Z,7.00
2018-05-26T07:02:26.494Z,7.20
2018-05-26T07:04:53.997Z,6.10
2018-05-26T07:07:23.248Z,5.87
2018-05-26T07:09:50.721Z,6.63
2018-05-26T07:12:18.603Z,6.57
2018-05-26T07:14:46.124Z,6.10
2018-05-26T07:17:14.213Z,6.30
2018-05-26T07:19:43.153Z,6.90
2018-05-26T07:22:11.430Z,6.47
2018-05-26T07:24:38.954Z,7.13
2018-05-26T07:27:06.635Z,6.60
2018-05-26T07:29:34.086Z,5.87
2018-05-26T07:32:01.639Z,5.90
2018-05-26T07:34:29.121Z,6.70
2018-05-26T07:36:57.376Z,6.50
2018-05-26T07:39:24.944Z,6.77
2018-05-26T07:41:52.433Z,6.40
2018-05-26T07:44:20.363Z,6.70
2018-05-26T07:46:47.875Z,5.90
2018-05-26T07:49:15.369Z,6.57
2018-05-26T07:51:43.409Z,6.33
2018-05-26T07:54:11.581Z,6.77
2018-05-26T07:56:39.270Z,5.80
2018-05-26T07:59:11.020Z,6.97
2018-05-26T08:01:39.146Z,6.97
2018-05-26T08:04:07.420Z,6.73
2018-05-26T08:06:34.897Z,5.20
2018-05-26T08:09:02.401Z,6.47
2018-05-26T08:11:30.595Z,7.10
2018-05-26T08:13:58.078Z,6.50
2018-05-26T08:16:25.596Z,6.27
2018-05-26T08:18:54.074Z,6.07
2018-05-26T08:21:21.574Z,6.53
2018-05-26T08:23:49.064Z,6.13
2018-05-26T08:26:16.529Z,6.20
2018-05-26T08:28:44.045Z,6.30
2018-05-26T08:31:12.984Z,6.27
2018-05-26T08:33:40.821Z,6.50
2018-05-26T08:36:08.311Z,6.17
2018-05-26T08:38:35.820Z,6.57
2018-05-26T08:41:04.101Z,5.90
2018-05-26T08:43:32.566Z,6.17
2018-05-26T08:46:00.831Z,6.87
2018-05-26T08:48:28.376Z,5.67
2018-05-26T08:50:55.875Z,5.90
2018-05-26T08:53:24.239Z,5.03
2018-05-26T08:55:51.711Z,6.13
2018-05-26T08:58:20.379Z,5.57
2018-05-26T09:00:48.650Z,6.10
2018-05-26T09:03:16.130Z,6.17
2018-05-26T09:05:43.637Z,5.50
2018-05-26T09:08:11.153Z,5.30
2018-05-26T09:10:38.652Z,5.30
2018-05-26T09:13:06.194Z,6.03
2018-05-26T09:15:33.722Z,5.13
2018-05-26T09:18:02.153Z,5.87
2018-05-26T09:20:29.666Z,5.93
2018-05-26T09:22:57.143Z,5.70
2018-05-26T09:25:25.262Z,5.57
2018-05-26T09:27:54.095Z,5.13
2018-05-26T09:30:22.296Z,5.77
2018-05-26T09:32:49.767Z,6.30
2018-05-26T09:35:18.307Z,5.23
2018-05-26T09:37:45.841Z,6.60
2018-05-26T09:40:14.138Z,6.33
2018-05-26T09:42:42.976Z,7.30
2018-05-26T09:45:10.454Z,6.40
2018-05-26T09:47:38.164Z,7.33
2018-05-26T09:50:05.673Z,6.43
2018-05-26T09:52:34.597Z,7.47
2018-05-26T09:55:03.841Z,7.03
2018-05-26T09:57:31.300Z,6.63
2018-05-26T09:59:58.790Z,6.87
2018-05-26T10:02:27.553Z,7.30
2018-05-26T10:04:55.089Z,6.80
2018-05-26T10:07:23.111Z,6.60
2018-05-26T10:09:50.652Z,6.63
2018-05-26T10:12:18.122Z,6.50
2018-05-26T10:14:46.455Z,6.30
2018-05-26T10:17:13.938Z,6.57
2018-05-26T10:19:42.040Z,6.80
2018-05-26T10:22:09.840Z,6.83
2018-05-26T10:24:37.452Z,5.90
2018-05-26T10:27:04.969Z,5.73
2018-05-26T10:29:33.780Z,6.50
2018-05-26T10:32:04.934Z,7.67
2018-05-26T10:34:32.472Z,7.00
2018-05-26T10:37:00.010Z,5.97
2018-05-26T10:39:27.542Z,6.63
2018-05-26T10:41:55.027Z,6.07
2018-05-26T10:44:24.014Z,5.70
2018-05-26T10:46:51.510Z,5.80
2018-05-26T10:49:20.646Z,5.40
2018-05-26T10:51:49.927Z,7.33
2018-05-26T10:54:17.437Z,4.47
2018-05-26T10:56:46.196Z,5.87
2018-05-26T10:59:13.675Z,6.17
2018-05-26T11:01:41.159Z,5.90
2018-05-26T11:04:08.753Z,10.17
2018-05-26T11:06:48.663Z,10.07
2018-05-26T11:09:16.154Z,7.27
2018-05-26T11:11:44.391Z,8.50
2018-05-26T11:14:11.899Z,6.70
2018-05-26T11:16:39.389Z,7.00
2018-05-26T11:19:06.854Z,7.27
2018-05-26T11:21:34.370Z,7.20
2018-05-26T11:24:02.062Z,6.53
2018-05-26T11:26:31.447Z,6.50
2018-05-26T11:28:59.044Z,6.37
2018-05-26T11:31:30.591Z,6.60
2018-05-26T11:33:58.135Z,7.17
2018-05-26T11:36:27.533Z,7.80
2018-05-26T11:38:56.192Z,7.93
2018-05-26T11:41:24.250Z,8.13
2018-05-26T11:43:55.139Z,7.77
2018-05-26T11:46:22.697Z,7.47
2018-05-26T11:48:55.701Z,6.20
2018-05-26T11:51:25.914Z,5.20
2018-05-26T11:53:57.459Z,8.17
2018-05-26T11:56:25.839Z,7.90
2018-05-26T11:59:07.477Z,5.57
2018-05-26T12:01:34.960Z,5.00
2018-05-26T12:04:02.463Z,6.13
2018-05-26T12:06:29.980Z,5.57
2018-05-26T12:08:57.511Z,5.90
2018-05-26T12:11:25.609Z,5.40
2018-05-26T12:13:55.285Z,5.67
2018-05-26T12:16:22.897Z,5.70
2018-05-26T12:18:50.342Z,5.27
2018-05-26T12:21:17.862Z,5.30
2018-05-26T12:23:45.444Z,5.00
2018-05-26T12:26:12.999Z,5.60
2018-05-26T12:28:43.817Z,5.70
2018-05-26T12:31:12.068Z,5.70
2018-05-26T12:33:39.587Z,5.30
2018-05-26T12:36:07.833Z,5.87
2018-05-26T12:38:35.333Z,6.10
2018-05-26T12:41:02.817Z,7.10
2018-05-26T12:43:30.819Z,6.10
2018-05-26T12:45:58.302Z,6.50
2018-05-26T12:48:26.051Z,6.00
2018-05-26T12:50:53.577Z,6.67
2018-05-26T12:53:21.086Z,6.40
2018-05-26T12:55:48.568Z,6.20
2018-05-26T12:58:17.353Z,6.33
2018-05-26T13:00:44.891Z,6.30
2018-05-26T13:03:13.163Z,6.00
2018-05-26T13:05:42.153Z,7.03
2018-05-26T13:08:09.650Z,6.93
2018-05-26T13:10:37.147Z,7.87
2018-05-26T13:13:05.393Z,6.70
2018-05-26T13:15:32.886Z,7.00
2018-05-26T13:18:01.145Z,8.30
2018-05-26T13:23:23.181Z,6.23
2018-05-26T13:25:50.675Z,5.83
2018-05-26T13:28:18.158Z,6.07
2018-05-26T13:30:46.327Z,6.30
2018-05-26T13:33:13.831Z,5.50
2018-05-26T13:35:41.314Z,5.67
2018-05-26T13:38:08.791Z,5.40
2018-05-26T13:40:36.323Z,5.73
2018-05-26T13:43:04.927Z,7.07
2018-05-26T13:45:34.789Z,6.10
2018-05-26T13:48:02.294Z,5.20
2018-05-26T13:50:29.875Z,5.40
2018-05-26T13:52:57.965Z,5.57
2018-05-26T13:55:25.433Z,5.67
2018-05-26T13:57:52.969Z,5.17
2018-05-26T14:00:20.475Z,5.60
2018-05-26T14:02:47.988Z,5.00
2018-05-26T14:05:15.459Z,5.40
2018-05-26T14:07:43.807Z,6.00
2018-05-26T14:10:11.302Z,5.60
2018-05-26T14:12:38.797Z,5.13
2018-05-26T14:15:07.944Z,5.67
2018-05-26T14:17:35.415Z,5.30
2018-05-26T14:20:02.921Z,5.17
2018-05-26T14:22:31.247Z,5.50
2018-05-26T14:24:59.422Z,5.23
2018-05-26T14:27:26.954Z,5.97
2018-05-26T14:29:54.441Z,9.73
2018-05-26T14:32:21.944Z,5.00
2018-05-26T14:34:49.438Z,5.13
2018-05-26T14:37:17.564Z,5.37
2018-05-26T14:39:45.090Z,5.57
2018-05-26T14:42:12.621Z,4.73
2018-05-26T14:44:42.450Z,4.97
2018-05-26T14:47:10.044Z,4.63
2018-05-26T14:49:37.544Z,4.73
2018-05-26T14:52:05.990Z,4.93
2018-05-26T14:54:33.465Z,4.43
2018-05-26T14:57:01.041Z,4.43
2018-05-26T14:59:29.904Z,5.10
2018-05-26T15:01:57.408Z,4.80
2018-05-26T15:04:24.993Z,4.83
2018-05-26T15:06:53.814Z,4.53
2018-05-26T15:09:21.830Z,5.30
2018-05-26T15:11:49.320Z,4.90
2018-05-26T15:14:18.139Z,5.20
2018-05-26T15:16:45.676Z,5.17
2018-05-26T15:19:16.796Z,4.73
2018-05-26T15:21:46.011Z,5.10
2018-05-26T15:24:15.619Z,4.43
2018-05-26T15:26:43.151Z,4.87
2018-05-26T15:29:10.721Z,5.67
2018-05-26T15:31:38.234Z,4.60
2018-05-26T15:34:05.753Z,4.80
2018-05-26T15:36:33.688Z,4.83
2018-05-26T15:39:01.176Z,4.50
2018-05-26T15:41:28.704Z,4.87
2018-05-26T15:43:56.194Z,5.00
2018-05-26T15:46:23.800Z,8.63
2018-05-26T15:48:51.845Z,9.73
2018-05-26T15:51:19.340Z,17.87
2018-05-26T15:53:51.171Z,6.53
2018-05-26T15:56:18.663Z,5.30
2018-05-26T15:58:47.322Z,9.77
2018-05-26T16:01:14.850Z,8.77
2018-05-26T16:03:42.417Z,7.13
2018-05-26T16:06:10.643Z,5.27
2018-05-26T16:08:38.147Z,5.53
2018-05-26T16:11:06.382Z,6.20
2018-05-26T16:13:34.445Z,5.30
2018-05-26T16:16:01.940Z,5.40
2018-05-26T16:18:30.168Z,5.80
2018-05-26T16:20:58.504Z,5.43
2018-05-26T16:23:26.703Z,5.40
2018-05-26T16:25:54.171Z,5.80
2018-05-26T16:28:21.659Z,5.60
2018-05-26T16:30:49.136Z,5.73
2018-05-26T16:33:16.642Z,5.33
2018-05-26T16:35:44.832Z,5.80
2018-05-26T16:38:12.332Z,6.20
2018-05-26T16:40:40.607Z,6.17
2018-05-26T16:43:08.129Z,5.90
2018-05-26T16:45:35.665Z,5.60
2018-05-26T16:48:03.162Z,6.17
2018-05-26T16:50:30.968Z,5.47
2018-05-26T16:52:59.236Z,6.17
2018-05-26T16:55:26.717Z,6.40
2018-05-26T16:57:54.213Z,5.53
2018-05-26T17:00:21.697Z,5.60
2018-05-26T17:02:50.032Z,5.53
2018-05-26T17:05:17.556Z,5.47
2018-05-26T17:07:45.048Z,5.70
2018-05-26T17:10:12.548Z,5.60
2018-05-26T17:12:40.012Z,4.77
2018-05-26T17:15:08.263Z,4.90
2018-05-26T17:17:35.757Z,5.80
2018-05-26T17:20:03.249Z,5.57
2018-05-26T17:22:30.776Z,6.10
2018-05-26T17:24:58.276Z,6.57
2018-05-26T17:27:25.782Z,5.80
2018-05-26T17:29:53.854Z,6.10
2018-05-26T17:32:21.348Z,6.90
2018-05-26T17:34:48.854Z,5.80
2018-05-26T17:37:16.466Z,6.47
2018-05-26T17:39:43.956Z,6.10
2018-05-26T17:42:11.462Z,6.43
2018-05-26T17:44:38.953Z,6.90
2018-05-26T17:47:09.713Z,6.47
2018-05-26T17:49:37.217Z,6.03
2018-05-26T17:52:05.690Z,5.87
2018-05-26T17:54:33.275Z,5.20
2018-05-26T17:57:02.094Z,5.60
2018-05-26T17:59:29.652Z,6.27
2018-05-26T18:01:57.881Z,6.50
2018-05-26T18:04:25.429Z,8.00
2018-05-26T18:06:52.986Z,6.33
2018-05-26T18:09:21.411Z,6.57
2018-05-26T18:11:49.294Z,6.43
2018-05-26T18:14:17.067Z,6.40
2018-05-26T18:16:44.572Z,5.63
2018-05-26T18:19:12.056Z,6.17
2018-05-26T18:21:39.541Z,7.60
2018-05-26T18:24:07.286Z,6.37
2018-05-26T18:26:34.770Z,5.83
2018-05-26T18:29:02.694Z,5.90
2018-05-26T18:31:30.327Z,5.70
2018-05-26T18:33:57.798Z,7.10
2018-05-26T18:36:25.314Z,6.23
2018-05-26T18:38:52.788Z,5.87
2018-05-26T18:41:21.071Z,5.73
2018-05-26T18:43:49.453Z,12.60
2018-05-26T18:46:16.980Z,15.10
2018-05-26T18:48:44.509Z,13.60
2018-05-26T18:51:11.990Z,8.30
2018-05-26T18:53:39.483Z,17.47
2018-05-26T18:56:07.046Z,10.93
2018-05-26T18:58:34.514Z,8.93
2018-05-26T19:01:02.037Z,12.17
2018-05-26T19:03:29.540Z,10.83
2018-05-26T19:05:57.052Z,13.93
2018-05-26T19:08:24.596Z,7.93
2018-05-26T19:10:52.269Z,7.83
2018-05-26T19:13:20.557Z,10.30
2018-05-26T19:15:48.871Z,6.40
2018-05-26T19:18:16.327Z,7.10
2018-05-26T19:20:43.846Z,7.47
2018-05-26T19:23:11.394Z,8.17
2018-05-26T19:25:38.909Z,8.00
2018-05-26T19:28:06.400Z,19.33
2018-05-26T19:30:34.667Z,8.07
2018-05-26T19:33:02.177Z,7.70
2018-05-26T19:35:29.648Z,7.10
2018-05-26T19:37:57.180Z,6.50
2018-05-26T19:40:26.942Z,7.30
2018-05-26T19:42:54.464Z,7.10
2018-05-26T19:45:23.349Z,7.30
2018-05-26T19:47:51.588Z,10.10
2018-05-26T19:50:19.152Z,17.10
2018-05-26T19:52:46.658Z,10.20
2018-05-26T19:55:14.257Z,12.90
2018-05-26T19:57:41.774Z,16.50
2018-05-26T20:00:09.321Z,13.67
2018-05-26T20:02:36.850Z,14.20
2018-05-26T20:05:04.429Z,15.50
2018-05-26T20:07:32.787Z,6.87
2018-05-26T20:10:00.310Z,6.60
2018-05-26T20:12:27.809Z,7.40
2018-05-26T20:14:55.322Z,8.87
2018-05-26T20:17:22.809Z,8.43
2018-05-26T20:19:50.853Z,7.43
2018-05-26T20:22:18.359Z,7.50
2018-05-26T20:24:45.860Z,7.47
2018-05-26T20:27:13.381Z,7.70
2018-05-26T20:29:41.630Z,7.60
2018-05-26T20:32:09.118Z,8.50
2018-05-26T20:34:36.618Z,8.40
2018-05-26T20:37:04.492Z,7.53
2018-05-26T20:39:31.982Z,8.60
2018-05-26T20:41:59.497Z,8.20
2018-05-26T20:44:27.005Z,10.27
2018-05-26T20:46:54.507Z,9.03
2018-05-26T20:49:23.110Z,9.40
2018-05-26T20:51:50.666Z,8.90
2018-05-26T20:54:18.126Z,8.73
2018-05-26T20:56:45.610Z,8.87
2018-05-26T20:59:13.129Z,9.70
2018-05-26T21:01:40.626Z,12.57
2018-05-26T21:04:08.202Z,13.80
2018-05-26T21:06:36.515Z,14.13
2018-05-26T21:09:04.021Z,14.07
2018-05-26T21:11:31.527Z,10.63
2018-05-26T21:13:59.162Z,9.87
2018-05-26T21:16:26.975Z,8.73
2018-05-26T21:18:54.536Z,7.83
2018-05-26T21:21:22.122Z,8.73
2018-05-26T21:23:49.663Z,9.03
2018-05-26T21:26:18.015Z,8.97
2018-05-26T21:28:45.613Z,9.07
2018-05-26T21:31:13.939Z,8.93
2018-05-26T21:33:42.467Z,10.33
2018-05-26T21:36:09.994Z,10.10
2018-05-26T21:38:37.494Z,9.20
2018-05-26T21:41:05.007Z,9.30
2018-05-26T21:43:32.493Z,9.37
2018-05-26T21:45:59.974Z,9.27
2018-05-26T21:48:27.535Z,9.90
2018-05-26T21:50:55.026Z,10.30
2018-05-26T21:53:23.284Z,9.40
2018-05-26T21:55:51.550Z,10.70
2018-05-26T21:58:19.085Z,10.50
2018-05-26T22:00:46.641Z,10.67
2018-05-26T22:03:14.236Z,9.83
2018-05-26T22:05:43.230Z,9.37
2018-05-26T22:08:28.359Z,9.70
2018-05-26T22:10:55.855Z,10.57
2018-05-26T22:13:23.343Z,10.57
2018-05-26T22:15:50.843Z,10.10
2018-05-26T22:18:18.374Z,9.23
2018-05-26T22:20:46.530Z,9.20
2018-05-26T22:23:14.046Z,9.20
2018-05-26T22:25:41.542Z,9.07
2018-05-26T22:28:09.043Z,9.77
2018-05-26T22:30:36.556Z,10.33
2018-05-26T22:33:04.040Z,9.10
2018-05-26T22:35:31.683Z,10.10
2018-05-26T22:37:59.170Z,8.70
2018-05-26T22:40:28.348Z,11.07
2018-05-26T22:42:55.866Z,9.40
2018-05-26T22:45:23.371Z,9.23
2018-05-26T22:47:50.859Z,9.10
2018-05-26T22:50:18.342Z,8.73
2018-05-26T22:52:45.826Z,8.90
2018-05-26T22:55:13.333Z,8.47
2018-05-26T22:57:40.813Z,10.37
2018-05-26T23:00:08.300Z,9.80
2018-05-26T23:02:35.829Z,9.83
2018-05-26T23:05:03.309Z,9.10
2018-05-26T23:07:30.822Z,11.10
2018-05-26T23:09:58.296Z,9.73
2018-05-26T23:12:25.902Z,9.87
2018-05-26T23:14:53.411Z,9.47
2018-05-26T23:17:20.882Z,9.50
2018-05-26T23:19:48.391Z,9.43
2018-05-26T23:22:15.905Z,9.73
2018-05-26T23:24:43.385Z,9.70
2018-05-26T23:27:12.149Z,9.20
2018-05-26T23:29:40.420Z,9.60
2018-05-26T23:32:07.971Z,9.40
2018-05-26T23:34:35.461Z,9.40
2018-05-26T23:37:02.945Z,10.13
2018-05-26T23:39:30.425Z,9.40
2018-05-26T23:41:57.903Z,10.37
2018-05-26T23:44:25.442Z,10.30
2018-05-26T23:46:52.886Z,9.57
2018-05-26T23:49:20.364Z,10.37
2018-05-26T23:51:47.883Z,10.27
2018-05-26T23:54:15.369Z,9.70
2018-05-26T23:56:42.879Z,9.90
2018-05-26T23:59:10.452Z,9.23
